Terminal Aerodrome Forecast
Issued by NWS Wilmington, OH

Current Version | Previous Version | Graphics & Text | Print | Product List | Glossary On
Versions: 1 2 3 4 5 6 7 8 9 10 11 12 13 14 15 16 17 18 19
000
FTUS41 KILN 232300 RRA
TAFCMH
TAF
KCMH 232341Z 2400/2424 11005KT P6SM SCT250
     FM241300 15008KT P6SM SCT100 BKN200
     FM241600 18009KT P6SM FEW050 BKN200=

USA.gov is the U.S. government's official web portal to all federal, state and local government web resources and services.